createdAt,value
2023-03-20T00:00:59.892Z,70
2023-03-20T00:02:16.858Z,70
2023-03-20T00:03:34.041Z,69
2023-03-20T00:04:51.073Z,69
2023-03-20T00:06:07.900Z,70
2023-03-20T00:07:24.880Z,70
2023-03-20T00:08:41.913Z,70
2023-03-20T00:09:58.967Z,70
2023-03-20T00:11:15.885Z,69
2023-03-20T00:12:32.913Z,69
2023-03-20T00:13:49.923Z,67
2023-03-20T00:15:06.894Z,69
2023-03-20T00:16:23.961Z,69
2023-03-20T00:17:40.902Z,67
2023-03-20T00:18:57.931Z,67
2023-03-20T00:20:14.892Z,69
2023-03-20T00:21:31.940Z,69
2023-03-20T00:22:48.948Z,70
2023-03-20T00:24:05.970Z,67
2023-03-20T00:25:22.971Z,67
2023-03-20T00:26:39.901Z,68
2023-03-20T00:27:56.926Z,67
2023-03-20T00:29:13.969Z,67
2023-03-20T00:30:30.910Z,67
2023-03-20T00:31:47.959Z,66
2023-03-20T00:33:04.966Z,67
2023-03-20T00:34:21.936Z,67
2023-03-20T00:35:39.046Z,74
2023-03-20T00:36:55.944Z,83
2023-03-20T00:38:12.927Z,86
2023-03-20T00:39:29.953Z,80
2023-03-20T00:40:46.973Z,74
2023-03-20T00:42:03.965Z,72
2023-03-20T00:43:20.962Z,71
2023-03-20T00:44:39.473Z,71
2023-03-20T00:45:54.983Z,72
2023-03-20T00:47:11.999Z,71
2023-03-20T00:48:28.926Z,71
2023-03-20T00:49:45.953Z,71
2023-03-20T00:51:02.962Z,70
2023-03-20T00:52:19.983Z,70
2023-03-20T00:53:36.962Z,71
2023-03-20T00:54:53.962Z,70
2023-03-20T00:56:10.972Z,68
2023-03-20T00:57:27.980Z,69
2023-03-20T00:58:44.942Z,69
2023-03-20T01:00:01.968Z,71
2023-03-20T01:01:18.997Z,72
2023-03-20T01:02:35.998Z,71
2023-03-20T01:03:52.968Z,70
2023-03-20T01:05:09.944Z,68
2023-03-20T01:06:26.955Z,69
2023-03-20T01:07:44.048Z,69
2023-03-20T01:09:01.047Z,67
2023-03-20T01:10:17.944Z,67
2023-03-20T01:11:34.988Z,70
2023-03-20T01:12:51.987Z,69
2023-03-20T01:14:08.959Z,73
2023-03-20T01:15:25.958Z,69
2023-03-20T01:16:43.077Z,65
2023-03-20T01:17:59.997Z,65
2023-03-20T01:19:17.215Z,65
2023-03-20T01:20:33.999Z,66
2023-03-20T01:21:50.982Z,65
2023-03-20T01:23:07.980Z,66
2023-03-20T01:24:25.016Z,65
2023-03-20T01:25:42.002Z,66
2023-03-20T01:26:59.020Z,65
2023-03-20T01:28:16.073Z,65
2023-03-20T01:29:32.987Z,64
2023-03-20T01:30:49.978Z,65
2023-03-20T01:32:07.046Z,65
2023-03-20T01:33:24.011Z,65
2023-03-20T01:34:41.020Z,65
2023-03-20T01:35:58.098Z,66
2023-03-20T01:37:15.000Z,66
2023-03-20T01:38:32.016Z,66
2023-03-20T01:39:49.012Z,65
2023-03-20T01:41:06.001Z,66
2023-03-20T01:42:23.060Z,65
2023-03-20T01:43:40.024Z,65
2023-03-20T01:44:57.012Z,65
2023-03-20T01:46:14.057Z,66
2023-03-20T01:47:31.048Z,66
2023-03-20T01:48:48.401Z,72
2023-03-20T01:50:05.059Z,69
2023-03-20T01:51:22.008Z,70
2023-03-20T01:52:39.008Z,67
2023-03-20T01:53:56.137Z,67
2023-03-20T01:55:13.040Z,66
2023-03-20T01:56:30.039Z,66
2023-03-20T01:57:47.050Z,67
2023-03-20T01:59:04.064Z,69
2023-03-20T02:00:21.083Z,68
2023-03-20T02:01:38.117Z,69
2023-03-20T02:02:55.108Z,69
2023-03-20T02:04:12.046Z,69
2023-03-20T02:05:29.034Z,69
2023-03-20T02:06:46.236Z,69
2023-03-20T02:08:03.088Z,70
2023-03-20T02:09:20.057Z,70
2023-03-20T02:10:37.042Z,70
2023-03-20T02:11:54.053Z,69
2023-03-20T02:13:11.106Z,69
2023-03-20T02:14:28.071Z,70
2023-03-20T02:15:45.084Z,71
2023-03-20T02:17:02.185Z,71
2023-03-20T02:18:19.094Z,71
2023-03-20T02:19:36.056Z,73
2023-03-20T02:20:53.098Z,73
2023-03-20T02:22:10.097Z,74
2023-03-20T02:23:27.088Z,74
2023-03-20T02:24:44.101Z,74
2023-03-20T02:26:01.165Z,74
2023-03-20T02:27:18.063Z,74
2023-03-20T02:28:35.143Z,75
2023-03-20T02:29:52.069Z,75
2023-03-20T02:31:09.187Z,75
2023-03-20T02:32:26.083Z,75
2023-03-20T02:33:43.162Z,76
2023-03-20T02:35:00.106Z,78
2023-03-20T02:36:17.137Z,79
2023-03-20T02:37:34.128Z,77
2023-03-20T02:38:51.113Z,-1
2023-03-20T02:40:08.109Z,77
2023-03-20T02:41:25.145Z,77
2023-03-20T02:42:42.079Z,78
2023-03-20T02:43:59.153Z,77
2023-03-20T02:45:16.117Z,78
2023-03-20T02:46:33.221Z,77
2023-03-20T02:47:50.140Z,77
2023-03-20T02:49:07.104Z,78
2023-03-20T02:50:24.088Z,80
2023-03-20T02:51:41.163Z,79
2023-03-20T02:52:58.122Z,79
2023-03-20T02:54:15.125Z,81
2023-03-20T02:55:32.202Z,81
2023-03-20T02:56:49.141Z,81
2023-03-20T02:58:06.139Z,81
2023-03-20T02:59:23.135Z,81
2023-03-20T03:00:40.136Z,82
2023-03-20T03:01:57.268Z,81
2023-03-20T03:03:14.135Z,84
2023-03-20T03:04:31.190Z,85
2023-03-20T03:05:48.143Z,88
2023-03-20T03:07:05.172Z,92
2023-03-20T03:08:22.120Z,94
2023-03-20T03:09:39.142Z,97
2023-03-20T03:10:56.137Z,97
2023-03-20T03:12:13.189Z,97
2023-03-20T03:13:30.142Z,98
2023-03-20T03:14:47.189Z,98
2023-03-20T03:16:04.175Z,98
2023-03-20T03:17:21.158Z,98
2023-03-20T03:18:38.144Z,100
2023-03-20T03:19:55.144Z,101
2023-03-20T03:21:12.174Z,102
2023-03-20T03:22:29.178Z,101
2023-03-20T03:23:46.209Z,103
2023-03-20T03:25:03.162Z,103
2023-03-20T03:26:20.219Z,104
2023-03-20T03:27:37.158Z,106
2023-03-20T03:28:54.228Z,106
2023-03-20T03:30:11.178Z,106
2023-03-20T03:31:28.234Z,106
2023-03-20T03:32:45.202Z,107
2023-03-20T03:34:02.212Z,108
2023-03-20T03:35:19.165Z,109
2023-03-20T03:36:36.196Z,110
2023-03-20T03:37:53.175Z,111
2023-03-20T03:39:10.252Z,113
2023-03-20T03:40:27.173Z,113
2023-03-20T03:41:44.172Z,115
2023-03-20T03:43:01.182Z,116
2023-03-20T03:44:18.268Z,115
2023-03-20T03:45:35.524Z,116
2023-03-20T03:46:52.405Z,117
2023-03-20T03:48:09.184Z,118
2023-03-20T03:49:26.232Z,118
2023-03-20T03:50:43.205Z,117
2023-03-20T03:52:00.200Z,121
2023-03-20T03:53:17.199Z,123
2023-03-20T03:54:34.229Z,125
2023-03-20T03:55:51.239Z,128
2023-03-20T03:57:08.222Z,128
2023-03-20T03:58:25.208Z,131
2023-03-20T03:59:42.230Z,133
2023-03-20T04:00:59.232Z,136
2023-03-20T04:02:16.291Z,137
2023-03-20T04:03:33.273Z,135
2023-03-20T04:04:50.301Z,133
2023-03-20T04:06:07.210Z,133
2023-03-20T04:07:24.240Z,132
2023-03-20T04:08:41.242Z,131
2023-03-20T04:09:58.215Z,128
2023-03-20T04:11:15.226Z,129
2023-03-20T04:12:32.245Z,126
2023-03-20T04:13:49.282Z,125
2023-03-20T04:15:06.227Z,124
2023-03-20T04:16:23.390Z,124
2023-03-20T04:17:40.254Z,124
2023-03-20T04:18:57.245Z,121
2023-03-20T04:20:14.315Z,119
2023-03-20T04:21:31.246Z,117
2023-03-20T04:22:48.241Z,117
2023-03-20T04:24:05.230Z,117
2023-03-20T04:25:22.323Z,115
2023-03-20T04:26:39.234Z,116
2023-03-20T04:27:56.252Z,112
2023-03-20T04:29:13.274Z,111
2023-03-20T04:30:30.323Z,110
2023-03-20T04:31:47.316Z,112
2023-03-20T04:33:04.378Z,110
2023-03-20T04:34:21.251Z,109
2023-03-20T04:35:38.710Z,111
2023-03-20T04:36:55.250Z,110
2023-03-20T04:38:12.319Z,111
2023-03-20T04:39:29.318Z,110
2023-03-20T04:40:46.261Z,110
2023-03-20T04:42:03.290Z,109
2023-03-20T04:43:20.287Z,111
2023-03-20T04:44:37.320Z,113
2023-03-20T04:45:54.337Z,118
2023-03-20T04:47:11.352Z,120
2023-03-20T04:48:28.302Z,123
2023-03-20T04:49:45.284Z,123
2023-03-20T04:51:02.295Z,122
2023-03-20T04:52:19.306Z,119
2023-03-20T04:53:36.318Z,120
2023-03-20T04:54:53.286Z,120
2023-03-20T04:56:10.286Z,118
2023-03-20T04:57:27.323Z,118
2023-03-20T04:58:44.289Z,117
2023-03-20T05:00:01.376Z,116
2023-03-20T05:01:18.392Z,113
2023-03-20T05:02:35.374Z,115
2023-03-20T05:03:52.387Z,115
2023-03-20T05:05:09.339Z,115
2023-03-20T05:06:26.294Z,115
2023-03-20T05:07:43.295Z,115
2023-03-20T05:09:00.483Z,115
2023-03-20T05:10:17.360Z,113
2023-03-20T05:11:34.309Z,115
2023-03-20T05:12:51.314Z,113
2023-03-20T05:14:08.413Z,114
2023-03-20T05:15:25.312Z,114
2023-03-20T05:16:42.392Z,113
2023-03-20T05:17:59.332Z,116
2023-03-20T05:19:16.392Z,116
2023-03-20T05:20:33.318Z,115
2023-03-20T05:21:50.342Z,115
2023-03-20T05:23:07.313Z,116
2023-03-20T05:24:24.356Z,116
2023-03-20T05:25:41.357Z,115
2023-03-20T05:26:58.333Z,116
2023-03-20T05:28:15.364Z,112
2023-03-20T05:29:32.318Z,112
2023-03-20T05:30:49.388Z,113
2023-03-20T05:32:06.339Z,116
2023-03-20T05:33:23.383Z,120
2023-03-20T05:34:40.349Z,124
2023-03-20T05:35:57.410Z,125
2023-03-20T05:37:14.392Z,124
2023-03-20T05:38:31.356Z,122
2023-03-20T05:39:48.365Z,120
2023-03-20T05:41:05.377Z,120
2023-03-20T05:42:22.470Z,120
2023-03-20T05:43:39.365Z,117
2023-03-20T05:44:56.348Z,117
2023-03-20T05:46:13.374Z,113
2023-03-20T05:47:30.430Z,115
2023-03-20T05:48:48.575Z,111
2023-03-20T05:50:06.424Z,110
2023-03-20T05:51:23.363Z,110
2023-03-20T05:52:40.387Z,110
2023-03-20T05:53:57.391Z,109
2023-03-20T05:55:14.489Z,110
2023-03-20T05:56:31.418Z,109
2023-03-20T05:57:48.364Z,108
2023-03-20T05:59:05.377Z,108
2023-03-20T06:00:22.376Z,109
2023-03-20T06:01:39.401Z,111
2023-03-20T06:02:56.531Z,109
2023-03-20T06:04:13.599Z,109
2023-03-20T06:05:30.443Z,109
2023-03-20T06:06:47.392Z,109
2023-03-20T06:08:04.400Z,108
2023-03-20T06:09:21.419Z,107
2023-03-20T06:10:38.828Z,105
2023-03-20T06:11:55.403Z,106
2023-03-20T06:13:12.404Z,105
2023-03-20T06:14:29.422Z,105
2023-03-20T06:15:46.648Z,106
2023-03-20T06:17:03.440Z,110
2023-03-20T06:18:20.450Z,115
2023-03-20T06:19:37.453Z,117
2023-03-20T06:20:54.416Z,123
2023-03-20T06:22:11.495Z,127
2023-03-20T06:23:28.418Z,132
2023-03-20T06:24:45.437Z,134
2023-03-20T06:26:02.550Z,136
2023-03-20T06:27:19.495Z,148
2023-03-20T06:28:36.428Z,141
2023-03-20T06:29:53.434Z,139
2023-03-20T06:31:10.954Z,135
2023-03-20T06:32:28.477Z,125
2023-03-20T06:33:45.423Z,124
2023-03-20T06:35:02.475Z,121
2023-03-20T06:36:19.470Z,121
2023-03-20T06:37:36.637Z,118
2023-03-20T06:38:53.450Z,118
2023-03-20T06:40:10.492Z,118
2023-03-20T06:41:34.038Z,117
2023-03-20T06:42:44.456Z,118
2023-03-20T06:44:01.604Z,112
2023-03-20T06:45:18.459Z,111
2023-03-20T06:46:35.622Z,111
2023-03-20T06:47:52.457Z,110
2023-03-20T06:49:09.672Z,110
2023-03-20T06:50:26.468Z,112
2023-03-20T06:51:43.461Z,113
2023-03-20T06:53:00.467Z,111
2023-03-20T06:54:17.465Z,111
2023-03-20T06:55:34.724Z,111
2023-03-20T06:56:51.507Z,109
2023-03-20T06:58:08.519Z,110
2023-03-20T06:59:25.464Z,110
2023-03-20T07:00:42.500Z,108
2023-03-20T07:01:59.660Z,111
2023-03-20T07:03:16.479Z,117
2023-03-20T07:04:33.535Z,120
2023-03-20T07:05:50.508Z,120
2023-03-20T07:07:07.528Z,125
2023-03-20T07:08:24.475Z,129
2023-03-20T07:09:41.490Z,134
2023-03-20T07:10:58.484Z,129
2023-03-20T07:12:15.500Z,128
2023-03-20T07:13:32.523Z,131
2023-03-20T07:14:49.483Z,131
2023-03-20T07:16:06.605Z,129
2023-03-20T07:17:23.570Z,126
2023-03-20T07:18:40.505Z,125
2023-03-20T07:19:57.528Z,122
2023-03-20T07:21:14.572Z,121
2023-03-20T07:22:31.591Z,121
2023-03-20T07:23:48.863Z,123
2023-03-20T07:25:05.506Z,119
2023-03-20T07:26:22.578Z,119
2023-03-20T07:27:39.538Z,119
2023-03-20T07:28:56.547Z,119
2023-03-20T07:30:13.579Z,124
2023-03-20T07:31:30.624Z,123
2023-03-20T07:32:47.576Z,124
2023-03-20T07:34:04.576Z,131
2023-03-20T07:35:21.606Z,131
2023-03-20T07:36:38.552Z,133
2023-03-20T07:37:57.679Z,140
2023-03-20T07:39:12.533Z,134
2023-03-20T07:40:29.541Z,134
2023-03-20T07:41:46.527Z,136
2023-03-20T07:43:03.683Z,136
2023-03-20T07:44:20.544Z,136
2023-03-20T07:45:37.898Z,136
2023-03-20T07:46:54.584Z,138
2023-03-20T07:48:11.542Z,135
2023-03-20T07:49:28.563Z,138
2023-03-20T07:50:45.990Z,147
2023-03-20T07:52:02.641Z,151
2023-03-20T07:53:19.547Z,155
2023-03-20T07:54:36.614Z,156
2023-03-20T07:55:53.808Z,155
2023-03-20T07:57:10.600Z,155
2023-03-20T07:58:27.651Z,157
2023-03-20T07:59:44.587Z,158
2023-03-20T08:01:01.603Z,154
2023-03-20T08:02:18.649Z,152
2023-03-20T08:03:35.832Z,144
2023-03-20T08:04:52.593Z,139
2023-03-20T08:06:09.571Z,139
2023-03-20T08:07:26.766Z,138
2023-03-20T08:08:43.555Z,138
2023-03-20T08:10:00.560Z,140
2023-03-20T08:11:17.597Z,139
2023-03-20T08:12:34.766Z,139
2023-03-20T08:13:51.610Z,138
2023-03-20T08:15:08.630Z,138
2023-03-20T08:16:25.601Z,138
2023-03-20T08:17:42.628Z,134
2023-03-20T08:18:59.585Z,137
2023-03-20T08:20:16.627Z,132
2023-03-20T08:21:33.626Z,131
2023-03-20T08:22:51.475Z,129
2023-03-20T08:24:08.622Z,129
2023-03-20T08:25:25.939Z,129
2023-03-20T08:26:42.630Z,131
2023-03-20T08:27:59.633Z,129
2023-03-20T08:29:16.598Z,131
2023-03-20T08:30:34.152Z,132
2023-03-20T08:31:50.651Z,132
2023-03-20T08:33:07.913Z,132
2023-03-20T08:34:24.592Z,129
2023-03-20T08:35:41.659Z,131
2023-03-20T08:36:58.615Z,133
2023-03-20T08:38:15.802Z,133
2023-03-20T08:39:32.638Z,136
2023-03-20T08:40:49.642Z,138
2023-03-20T08:42:07.125Z,140
2023-03-20T08:43:23.776Z,141
2023-03-20T08:44:40.624Z,141
2023-03-20T08:45:57.665Z,139
2023-03-20T08:47:14.615Z,134
2023-03-20T08:48:31.699Z,132
2023-03-20T08:49:48.701Z,128
2023-03-20T08:51:05.608Z,129
2023-03-20T08:52:22.622Z,131
2023-03-20T08:53:39.838Z,128
2023-03-20T08:54:56.653Z,129
2023-03-20T08:56:13.662Z,126
2023-03-20T08:57:30.802Z,126
2023-03-20T08:58:47.654Z,126
2023-03-20T09:00:04.685Z,121
2023-03-20T09:01:21.763Z,119
2023-03-20T09:02:38.809Z,117
2023-03-20T09:03:55.684Z,116
2023-03-20T09:05:12.691Z,115
2023-03-20T09:06:29.677Z,113
2023-03-20T09:07:46.685Z,-1
2023-03-20T09:09:03.735Z,116
2023-03-20T09:10:20.700Z,117
2023-03-20T09:11:37.766Z,111
2023-03-20T09:12:54.681Z,111
2023-03-20T09:14:11.877Z,110
2023-03-20T09:15:30.927Z,110
2023-03-20T09:16:47.679Z,111
2023-03-20T09:18:04.692Z,111
2023-03-20T09:19:21.757Z,110
2023-03-20T09:20:38.720Z,110
2023-03-20T09:21:56.670Z,109
2023-03-20T09:23:13.826Z,106
2023-03-20T09:24:30.745Z,106
2023-03-20T09:25:47.714Z,105
2023-03-20T09:27:04.694Z,106
2023-03-20T09:28:21.719Z,106
2023-03-20T09:29:38.738Z,104
2023-03-20T09:30:55.754Z,105
2023-03-20T09:32:12.698Z,105
2023-03-20T09:33:29.689Z,105
2023-03-20T09:34:46.723Z,106
2023-03-20T09:36:03.809Z,109
2023-03-20T09:37:20.736Z,110
2023-03-20T09:38:37.928Z,110
2023-03-20T09:39:54.766Z,111
2023-03-20T09:41:11.705Z,106
2023-03-20T09:42:28.732Z,107
2023-03-20T09:43:45.696Z,104
2023-03-20T09:45:02.755Z,104
2023-03-20T09:46:19.979Z,103
2023-03-20T09:47:37.181Z,102
2023-03-20T09:48:54.558Z,101
2023-03-20T09:50:10.850Z,100
2023-03-20T09:51:27.733Z,97
2023-03-20T09:52:44.817Z,97
2023-03-20T09:54:01.778Z,97
2023-03-20T09:55:18.989Z,97
2023-03-20T09:56:35.745Z,97
2023-03-20T09:57:52.773Z,97
2023-03-20T09:59:09.743Z,100
2023-03-20T10:00:26.839Z,101
2023-03-20T10:01:44.191Z,97
2023-03-20T10:03:01.143Z,96
2023-03-20T10:04:21.218Z,96
2023-03-20T10:05:38.207Z,97
2023-03-20T10:06:54.846Z,98
2023-03-20T10:08:12.638Z,97
2023-03-20T10:09:28.773Z,97
2023-03-20T10:10:45.796Z,98
2023-03-20T10:12:02.786Z,97
2023-03-20T10:13:19.787Z,94
2023-03-20T10:14:36.811Z,95
2023-03-20T10:15:53.811Z,94
2023-03-20T10:17:10.744Z,94
2023-03-20T10:18:27.744Z,94
2023-03-20T10:19:44.748Z,94
2023-03-20T10:21:01.814Z,94
2023-03-20T10:22:19.167Z,93
2023-03-20T10:23:35.767Z,93
2023-03-20T10:24:52.820Z,94
2023-03-20T10:26:09.805Z,94
2023-03-20T10:27:28.276Z,95
2023-03-20T10:28:43.750Z,96
2023-03-20T10:30:00.796Z,97
2023-03-20T10:31:17.908Z,95
2023-03-20T10:32:34.796Z,96
2023-03-20T10:33:51.782Z,96
2023-03-20T10:35:08.767Z,101
2023-03-20T10:36:25.852Z,89
2023-03-20T10:37:42.844Z,90
2023-03-20T10:38:59.779Z,92
2023-03-20T10:40:16.803Z,89
2023-03-20T10:41:33.831Z,89
2023-03-20T10:42:50.858Z,88
2023-03-20T10:44:07.795Z,90
2023-03-20T10:45:24.800Z,88
2023-03-20T10:46:41.892Z,85
2023-03-20T10:47:58.886Z,83
2023-03-20T10:49:15.858Z,83
2023-03-20T10:50:32.841Z,82
2023-03-20T10:51:49.868Z,79
2023-03-20T10:53:06.808Z,80
2023-03-20T10:54:23.840Z,77
2023-03-20T10:55:40.838Z,77
2023-03-20T10:56:57.866Z,75
2023-03-20T10:58:14.821Z,77
2023-03-20T10:59:31.848Z,77
2023-03-20T11:00:48.867Z,78
2023-03-20T11:02:05.861Z,73
2023-03-20T11:03:22.831Z,72
2023-03-20T11:04:39.852Z,70
2023-03-20T11:06:08.783Z,66
2023-03-20T11:07:13.896Z,65
2023-03-20T11:08:30.883Z,66
2023-03-20T11:09:47.875Z,67
2023-03-20T11:11:04.896Z,74
2023-03-20T11:12:21.881Z,73
2023-03-20T11:13:38.895Z,73
2023-03-20T11:14:55.854Z,73
2023-03-20T11:16:13.048Z,74
2023-03-20T11:17:29.883Z,75
2023-03-20T11:18:46.871Z,78
2023-03-20T11:20:03.865Z,77
2023-03-20T11:21:20.881Z,74
2023-03-20T11:22:37.889Z,74
2023-03-20T11:23:54.868Z,73
2023-03-20T11:25:11.874Z,74
2023-03-20T11:26:28.910Z,74
2023-03-20T11:27:45.984Z,74
2023-03-20T11:29:02.901Z,73
2023-03-20T11:30:19.903Z,73
2023-03-20T11:31:37.160Z,75
2023-03-20T11:32:53.953Z,75
2023-03-20T11:34:10.941Z,75
2023-03-20T11:35:28.446Z,75
2023-03-20T11:36:47.344Z,75
2023-03-20T11:38:01.933Z,78
2023-03-20T11:39:18.946Z,77
2023-03-20T11:40:36.113Z,78
2023-03-20T11:41:52.956Z,78
2023-03-20T11:43:09.894Z,77
2023-03-20T11:44:26.924Z,75
2023-03-20T11:45:44.064Z,78
2023-03-20T11:47:00.927Z,77
2023-03-20T11:48:17.958Z,77
2023-03-20T11:49:34.906Z,75
2023-03-20T11:50:51.933Z,74
2023-03-20T11:52:08.906Z,73
2023-03-20T11:53:25.932Z,74
2023-03-20T11:54:42.930Z,73
2023-03-20T11:55:59.902Z,74
2023-03-20T11:57:16.941Z,74
2023-03-20T11:58:33.971Z,74
2023-03-20T11:59:50.930Z,73
2023-03-20T12:01:07.934Z,73
2023-03-20T12:02:25.005Z,72
2023-03-20T12:03:42.089Z,74
2023-03-20T12:04:58.897Z,77
2023-03-20T12:06:15.933Z,75
2023-03-20T12:07:32.912Z,75
2023-03-20T12:08:49.989Z,74
2023-03-20T12:10:07.004Z,72
2023-03-20T12:11:23.941Z,73
2023-03-20T12:12:40.933Z,72
2023-03-20T12:13:58.004Z,74
2023-03-20T12:15:15.034Z,74
2023-03-20T12:16:31.950Z,72
2023-03-20T12:17:48.945Z,73
2023-03-20T12:19:05.995Z,73
2023-03-20T12:20:22.976Z,74
2023-03-20T12:21:39.949Z,73
2023-03-20T12:22:56.950Z,74
2023-03-20T12:24:14.018Z,73
2023-03-20T12:25:30.960Z,73
2023-03-20T12:26:47.970Z,74
2023-03-20T12:28:06.129Z,77
2023-03-20T12:29:28.350Z,75
2023-03-20T12:30:48.863Z,74
2023-03-20T12:32:09.530Z,74
2023-03-20T12:33:27.298Z,74
2023-03-20T12:34:49.137Z,75
2023-03-20T12:36:09.728Z,76
2023-03-20T12:37:27.874Z,72
2023-03-20T12:38:50.675Z,71
2023-03-20T12:40:13.308Z,71
2023-03-20T12:41:39.611Z,71
2023-03-20T12:43:05.572Z,67
2023-03-20T12:44:29.121Z,67
2023-03-20T12:45:49.510Z,66
2023-03-20T12:47:13.371Z,66
2023-03-20T12:48:35.758Z,70
2023-03-20T12:50:04.888Z,69
2023-03-20T12:51:27.400Z,73
2023-03-20T12:52:51.347Z,75
2023-03-20T12:54:11.552Z,75
2023-03-20T12:55:35.447Z,74
2023-03-20T12:56:54.068Z,77
2023-03-20T12:58:16.713Z,78
2023-03-20T12:59:36.420Z,80
2023-03-20T13:00:59.086Z,86
2023-03-20T13:02:17.879Z,89
2023-03-20T13:03:36.132Z,94
2023-03-20T13:04:56.070Z,94
2023-03-20T13:06:16.916Z,95
2023-03-20T13:07:37.802Z,95
2023-03-20T13:08:57.907Z,94
2023-03-20T13:10:17.810Z,90
2023-03-20T13:11:40.148Z,90
2023-03-20T13:13:02.578Z,93
2023-03-20T13:14:27.052Z,95
2023-03-20T13:15:46.143Z,96
2023-03-20T13:17:07.773Z,97
2023-03-20T13:18:30.581Z,97
2023-03-20T13:19:50.656Z,96
2023-03-20T13:21:07.218Z,103
2023-03-20T13:22:24.163Z,103
2023-03-20T13:23:44.866Z,103
2023-03-20T13:25:19.176Z,109
2023-03-20T13:26:36.760Z,110
2023-03-20T13:27:54.396Z,103
2023-03-20T13:29:15.835Z,100
2023-03-20T13:30:34.575Z,96
2023-03-20T13:31:57.239Z,95
2023-03-20T13:33:16.956Z,100
2023-03-20T13:34:42.500Z,100
2023-03-20T13:36:02.826Z,101
2023-03-20T13:37:24.955Z,101
2023-03-20T13:38:49.115Z,100
2023-03-20T13:40:10.988Z,101
2023-03-20T13:41:35.646Z,98
2023-03-20T13:42:56.600Z,99
2023-03-20T13:44:23.789Z,98
2023-03-20T13:45:49.118Z,103
2023-03-20T13:47:11.838Z,117
2023-03-20T13:48:34.938Z,108
2023-03-20T13:49:59.886Z,110
2023-03-20T13:51:22.856Z,110
2023-03-20T13:52:46.969Z,111
2023-03-20T13:54:09.709Z,113
2023-03-20T13:55:31.085Z,108
2023-03-20T13:56:57.799Z,104
2023-03-20T13:58:18.363Z,102
2023-03-20T13:59:40.195Z,105
2023-03-20T14:00:59.256Z,104
2023-03-20T14:02:22.693Z,111
2023-03-20T14:03:40.686Z,117
2023-03-20T14:04:59.517Z,120
2023-03-20T14:06:18.376Z,136
2023-03-20T14:07:38.189Z,109
2023-03-20T14:09:00.119Z,111
2023-03-20T14:10:17.439Z,106
2023-03-20T14:11:34.692Z,102
2023-03-20T14:12:54.514Z,102
2023-03-20T14:14:15.307Z,98
2023-03-20T14:15:34.775Z,97
2023-03-20T14:16:55.340Z,97
2023-03-20T14:18:13.592Z,97
2023-03-20T14:19:32.743Z,92
2023-03-20T14:20:51.680Z,93
2023-03-20T14:22:14.215Z,94
2023-03-20T14:23:36.687Z,92
2023-03-20T14:24:53.909Z,90
2023-03-20T14:26:13.803Z,93
2023-03-20T14:27:43.624Z,95
2023-03-20T14:28:54.410Z,93
2023-03-20T14:30:16.487Z,88
2023-03-20T14:31:36.218Z,83
2023-03-20T14:32:56.520Z,82
2023-03-20T14:34:15.130Z,81
2023-03-20T14:35:37.894Z,82
2023-03-20T14:36:58.085Z,83
2023-03-20T14:38:15.164Z,85
2023-03-20T14:39:32.243Z,86
2023-03-20T14:40:50.838Z,86
2023-03-20T14:42:09.347Z,87
2023-03-20T14:43:28.945Z,88
2023-03-20T14:44:47.184Z,88
2023-03-20T14:46:06.991Z,92
2023-03-20T14:47:26.735Z,92
2023-03-20T14:48:49.234Z,93
2023-03-20T14:50:08.228Z,92
2023-03-20T14:51:30.975Z,88
2023-03-20T14:52:54.053Z,89
2023-03-20T14:54:12.281Z,89
2023-03-20T14:55:29.182Z,86
2023-03-20T14:56:48.183Z,83
2023-03-20T14:58:10.089Z,83
2023-03-20T14:59:34.919Z,83
2023-03-20T15:00:53.390Z,83
2023-03-20T15:02:12.749Z,86
2023-03-20T15:03:34.175Z,92
2023-03-20T15:04:52.282Z,98
2023-03-20T15:06:12.209Z,102
2023-03-20T15:07:29.881Z,103
2023-03-20T15:08:49.448Z,109
2023-03-20T15:10:07.271Z,110
2023-03-20T15:11:24.382Z,108
2023-03-20T15:12:41.445Z,101
2023-03-20T15:14:01.317Z,101
2023-03-20T15:15:20.005Z,101
2023-03-20T15:16:41.486Z,99
2023-03-20T15:18:01.151Z,94
2023-03-20T15:19:21.579Z,95
2023-03-20T15:20:40.149Z,100
2023-03-20T15:22:00.579Z,96
2023-03-20T15:23:21.288Z,96
2023-03-20T15:24:39.828Z,95
2023-03-20T15:25:58.777Z,106
2023-03-20T15:27:18.796Z,104
2023-03-20T15:28:38.358Z,101
2023-03-20T15:29:55.504Z,98
2023-03-20T15:31:15.717Z,97
2023-03-20T15:32:36.439Z,101
2023-03-20T15:33:57.284Z,88
2023-03-20T15:35:18.868Z,93
2023-03-20T15:36:38.697Z,92
2023-03-20T15:37:59.015Z,90
2023-03-20T15:39:19.207Z,90
2023-03-20T15:40:49.919Z,90
2023-03-20T15:42:01.341Z,90
2023-03-20T15:43:20.100Z,93
2023-03-20T15:44:40.510Z,95
2023-03-20T15:46:17.211Z,95
2023-03-20T15:47:22.223Z,94
2023-03-20T15:50:04.307Z,94
2023-03-20T15:51:21.422Z,94
2023-03-20T15:52:38.344Z,96
2023-03-20T15:53:55.629Z,97
2023-03-20T15:55:13.446Z,95
2023-03-20T15:56:34.137Z,94
2023-03-20T15:57:57.837Z,92
2023-03-20T15:59:16.384Z,93
2023-03-20T16:00:33.330Z,93
2023-03-20T16:01:50.357Z,92
2023-03-20T16:03:07.316Z,92
2023-03-20T16:04:24.337Z,93
2023-03-20T16:05:41.339Z,90
2023-03-20T16:06:58.484Z,90
2023-03-20T16:08:15.343Z,90
2023-03-20T16:09:32.287Z,90
2023-03-20T16:10:49.404Z,92
2023-03-20T16:12:06.307Z,89
2023-03-20T16:13:25.104Z,86
2023-03-20T16:14:42.290Z,119
2023-03-20T16:15:59.509Z,140
2023-03-20T16:17:16.317Z,124
2023-03-20T16:18:33.582Z,155
2023-03-20T16:19:50.582Z,143
2023-03-20T16:21:07.649Z,167
2023-03-20T16:22:24.728Z,190
2023-03-20T16:23:41.982Z,303
2023-03-20T16:24:59.603Z,411
2023-03-20T16:26:16.763Z,622
2023-03-20T16:27:34.566Z,546
2023-03-20T16:28:52.725Z,360
2023-03-20T16:30:10.596Z,719
2023-03-20T16:31:27.667Z,295
2023-03-20T16:32:44.756Z,-1
2023-03-20T16:34:02.831Z,900
2023-03-20T16:35:20.635Z,684
2023-03-20T16:36:37.732Z,880
2023-03-20T16:37:55.680Z,610
2023-03-20T16:39:12.626Z,414
2023-03-20T16:40:29.611Z,695
2023-03-20T16:41:46.749Z,205
2023-03-20T16:43:03.691Z,103
2023-03-20T16:44:20.682Z,97
2023-03-20T16:45:37.796Z,97
2023-03-20T16:46:54.754Z,225
2023-03-20T16:48:11.723Z,358
2023-03-20T16:49:28.731Z,225
2023-03-20T16:50:45.759Z,155
2023-03-20T16:52:03.693Z,126
2023-03-20T16:53:20.834Z,140
2023-03-20T16:54:38.838Z,105
2023-03-20T16:55:56.988Z,105
2023-03-20T16:57:15.091Z,128
2023-03-20T16:58:34.857Z,120
2023-03-20T16:59:53.030Z,98
2023-03-20T17:01:11.362Z,121
2023-03-20T17:02:29.892Z,104
2023-03-20T17:03:49.408Z,94
2023-03-20T17:05:07.074Z,101
2023-03-20T17:06:25.839Z,103
2023-03-20T17:07:43.651Z,97
2023-03-20T17:09:00.793Z,99
2023-03-20T17:10:18.023Z,99
2023-03-20T17:11:35.989Z,93
2023-03-20T17:12:53.755Z,95
2023-03-20T17:14:11.277Z,100
2023-03-20T17:15:28.911Z,98
2023-03-20T17:16:46.973Z,95
2023-03-20T17:18:04.718Z,98
2023-03-20T17:19:23.228Z,98
2023-03-20T17:20:40.827Z,98
2023-03-20T17:21:57.865Z,98
2023-03-20T17:23:16.029Z,101
2023-03-20T17:24:33.825Z,100
2023-03-20T17:25:55.769Z,101
2023-03-20T17:27:13.297Z,102
2023-03-20T17:28:30.752Z,102
2023-03-20T17:29:49.935Z,101
2023-03-20T17:31:07.744Z,97
2023-03-20T17:32:24.843Z,98
2023-03-20T17:33:41.685Z,97
2023-03-20T17:34:59.501Z,98
2023-03-20T17:36:16.765Z,99
2023-03-20T17:37:33.684Z,99
2023-03-20T17:38:51.054Z,99
2023-03-20T17:40:09.566Z,98
2023-03-20T17:41:27.436Z,100
2023-03-20T17:42:44.704Z,101
2023-03-20T17:44:02.734Z,100
2023-03-20T17:45:22.286Z,100
2023-03-20T17:46:54.158Z,101
2023-03-20T17:47:56.924Z,101
2023-03-20T17:49:14.780Z,100
2023-03-20T17:50:32.054Z,100
2023-03-20T17:51:50.276Z,102
2023-03-20T17:53:08.966Z,103
2023-03-20T17:54:25.741Z,103
2023-03-20T17:55:43.863Z,103
2023-03-20T17:57:01.095Z,104
2023-03-20T17:58:19.143Z,104
2023-03-20T17:59:37.029Z,104
2023-03-20T18:00:55.692Z,104
2023-03-20T18:02:13.334Z,106
2023-03-20T18:03:31.149Z,107
2023-03-20T18:04:49.410Z,106
2023-03-20T18:06:06.843Z,107
2023-03-20T18:07:23.810Z,108
2023-03-20T18:08:40.907Z,110
2023-03-20T18:09:58.250Z,111
2023-03-20T18:11:17.546Z,110